Hatsu Excel — VSXV3 — position and weather

sailwx.info

Track history (hours):
 
Tides and Currents Weather Stations Pressure Air Temp Water Temp Dewpoint Dewpoint Depression Visibility Wind Speed Wind Dir Waves Ship Positions

Hatsu Excel

Last reported at 2014-Nov-23 09:11 UTC. Time now 2014-Nov-23 14:44 UTC.
Position N 29°15' E 122°29'.

Type: Ship (hazmat cat D). MMSI: 235479000.

Date/timePositionNaut miles runAvg speedWind from/ knotsBaromVisibWave heightAir tempDewpointWater temp
2014-Nov-23 09:11N 29°15' E 122°29'914.9
2014-Nov-23 08:33N 29°24' E 122°30'1514.8
2014-Nov-23 07:33N 29°39' E 122°33'1514.7
2014-Nov-23 06:33N 29°46' E 122°18'1212.5
2014-Nov-23 05:33N 29°55' E 122°09'6 1.1
2014-Nov-23 00:17N 29°53' E 122°03'0 0.0
2014-Nov-22 22:17N 29°53' E 122°03'0 0.0
2014-Nov-22 20:23N 29°53' E 122°03'0 0.0
2014-Nov-22 19:23N 29°53' E 122°03'0 0.0
2014-Nov-22 18:33N 29°53' E 122°03'0 0.0
2014-Nov-22 17:33N 29°53' E 122°03'4 3.8
2014-Nov-22 16:33N 29°55' E 122°07'1110.8
2014-Nov-22 15:33N 29°48' E 122°15'8 8.2
2014-Nov-22 14:32N 29°44' E 122°24'7 7.0
2014-Nov-22 13:33N 29°42' E 122°32'7 7.2
2014-Nov-22 12:33N 29°47' E 122°38'1 0.6
2014-Nov-22 11:32N 29°47' E 122°38'4 4.6
2014-Nov-22 10:33N 29°49' E 122°43'4110.0
2014-Nov-22 06:28N 30°30' E 122°35'1414.8
2014-Nov-22 05:32N 30°33' E 122°19'1413.8
2014-Nov-22 04:33N 30°37' E 122°04'1 1.3
2014-Nov-22 03:26N 30°38' E 122°03'0 0.0
2014-Nov-22 02:26N 30°38' E 122°03'0 0.1
2014-Nov-22 01:29N 30°38' E 122°03'0 0.0
2014-Nov-22 00:29N 30°38' E 122°03'0 0.1
2014-Nov-21 23:32N 30°38' E 122°03'0 0.0
2014-Nov-21 22:32N 30°38' E 122°03'0 0.1
2014-Nov-21 21:31N 30°38' E 122°03'0 0.0
2014-Nov-21 20:14N 30°38' E 122°03'0 0.0
2014-Nov-21 19:32N 30°38' E 122°03'0 0.0
2014-Nov-21 18:33N 30°38' E 122°03'4 4.4
2014-Nov-21 17:33N 30°35' E 122°07'8 8.0
2014-Nov-21 16:33N 30°34' E 122°16'8 8.1
2014-Nov-21 15:33N 30°32' E 122°26'16 7.9
2014-Nov-21 13:32N 30°29' E 122°44'5611.1
2014-Nov-21 08:27N 31°21' E 123°09'30412.2
2014-Nov-20 07:33N 35°58' E 120°36'1313.1
2014-Nov-20 06:33N 36°01' E 120°21'6 6.4
2014-Nov-20 05:33N 36°01' E 120°13'0 0.0
2014-Nov-20 04:30N 36°01' E 120°13'0 0.0
2014-Nov-20 03:30N 36°01' E 120°13'0 0.0
2014-Nov-20 02:30N 36°01' E 120°13'0 0.0
2014-Nov-20 01:33N 36°01' E 120°13'0 0.0
2014-Nov-20 00:32N 36°01' E 120°13'0 0.0
2014-Nov-19 23:26N 36°01' E 120°13'0 0.0
2014-Nov-19 22:31N 36°01' E 120°13'0 0.0
2014-Nov-19 21:33N 36°01' E 120°13'0 0.0
2014-Nov-19 20:33N 36°01' E 120°13'6 6.0
2014-Nov-19 19:33N 36°02' E 120°20'10 9.8
2014-Nov-19 18:33N 35°59' E 120°32'1812.9
2014-Nov-19 17:09N 35°56' E 120°54'  
Track history (hours):
 
Tides and Currents Weather Stations Pressure Air Temp Water Temp Dewpoint Dewpoint Depression Visibility Wind Speed Wind Dir Waves Ship Positions

Hatsu Excel

Last reported at 2014-Nov-23 09:11 UTC. Time now 2014-Nov-23 14:44 UTC.
Position N 29°15' E 122°29'.

Type: Ship (hazmat cat D). MMSI: 235479000.

Date/timePositionNaut miles runAvg speedWind from/ knotsBaromVisibWave heightAir tempDewpointWater temp
2014-Nov-23 09:11N 29°15' E 122°29'914.9
2014-Nov-23 08:33N 29°24' E 122°30'1514.8
2014-Nov-23 07:33N 29°39' E 122°33'1514.7
2014-Nov-23 06:33N 29°46' E 122°18'1212.5
2014-Nov-23 05:33N 29°55' E 122°09'6 1.1
2014-Nov-23 00:17N 29°53' E 122°03'0 0.0
2014-Nov-22 22:17N 29°53' E 122°03'0 0.0
2014-Nov-22 20:23N 29°53' E 122°03'0 0.0
2014-Nov-22 19:23N 29°53' E 122°03'0 0.0
2014-Nov-22 18:33N 29°53' E 122°03'0 0.0
2014-Nov-22 17:33N 29°53' E 122°03'4 3.8
2014-Nov-22 16:33N 29°55' E 122°07'1110.8
2014-Nov-22 15:33N 29°48' E 122°15'8 8.2
2014-Nov-22 14:32N 29°44' E 122°24'7 7.0
2014-Nov-22 13:33N 29°42' E 122°32'7 7.2
2014-Nov-22 12:33N 29°47' E 122°38'1 0.6
2014-Nov-22 11:32N 29°47' E 122°38'4 4.6
2014-Nov-22 10:33N 29°49' E 122°43'4110.0
2014-Nov-22 06:28N 30°30' E 122°35'1414.8
2014-Nov-22 05:32N 30°33' E 122°19'1413.8
2014-Nov-22 04:33N 30°37' E 122°04'1 1.3
2014-Nov-22 03:26N 30°38' E 122°03'0 0.0
2014-Nov-22 02:26N 30°38' E 122°03'0 0.1
2014-Nov-22 01:29N 30°38' E 122°03'0 0.0
2014-Nov-22 00:29N 30°38' E 122°03'0 0.1
2014-Nov-21 23:32N 30°38' E 122°03'0 0.0
2014-Nov-21 22:32N 30°38' E 122°03'0 0.1
2014-Nov-21 21:31N 30°38' E 122°03'0 0.0
2014-Nov-21 20:14N 30°38' E 122°03'0 0.0
2014-Nov-21 19:32N 30°38' E 122°03'0 0.0
2014-Nov-21 18:33N 30°38' E 122°03'4 4.4
2014-Nov-21 17:33N 30°35' E 122°07'8 8.0
2014-Nov-21 16:33N 30°34' E 122°16'8 8.1
2014-Nov-21 15:33N 30°32' E 122°26'16 7.9
2014-Nov-21 13:32N 30°29' E 122°44'5611.1
2014-Nov-21 08:27N 31°21' E 123°09'30412.2
2014-Nov-20 07:33N 35°58' E 120°36'1313.1
2014-Nov-20 06:33N 36°01' E 120°21'6 6.4
2014-Nov-20 05:33N 36°01' E 120°13'0 0.0
2014-Nov-20 04:30N 36°01' E 120°13'0 0.0
2014-Nov-20 03:30N 36°01' E 120°13'0 0.0
2014-Nov-20 02:30N 36°01' E 120°13'0 0.0
2014-Nov-20 01:33N 36°01' E 120°13'0 0.0
2014-Nov-20 00:32N 36°01' E 120°13'0 0.0
2014-Nov-19 23:26N 36°01' E 120°13'0 0.0
2014-Nov-19 22:31N 36°01' E 120°13'0 0.0
2014-Nov-19 21:33N 36°01' E 120°13'0 0.0
2014-Nov-19 20:33N 36°01' E 120°13'6 6.0
2014-Nov-19 19:33N 36°02' E 120°20'10 9.8
2014-Nov-19 18:33N 35°59' E 120°32'1812.9
2014-Nov-19 17:09N 35°56' E 120°54'  

Dump ship's entire track history